createdAt,value
2022-10-12T00:02:08.909Z,79.58
2022-10-12T00:04:35.872Z,79.30
2022-10-12T00:07:02.952Z,79.79
2022-10-12T00:09:30.186Z,80.11
2022-10-12T00:11:57.064Z,80.62
2022-10-12T00:14:23.901Z,80.90
2022-10-12T00:16:51.028Z,81.36
2022-10-12T00:19:17.810Z,82.59
2022-10-12T00:21:44.756Z,82.87
2022-10-12T00:24:12.109Z,80.42
2022-10-12T00:26:39.033Z,79.94
2022-10-12T00:29:06.010Z,80.00
2022-10-12T00:31:33.280Z,80.04
2022-10-12T00:34:01.532Z,80.07
2022-10-12T00:36:30.216Z,80.68
2022-10-12T00:38:57.401Z,81.05
2022-10-12T00:41:26.642Z,80.71
2022-10-12T00:43:58.252Z,81.30
2022-10-12T00:46:31.957Z,81.08
2022-10-12T00:49:11.025Z,80.12
2022-10-12T00:51:39.966Z,80.39
2022-10-12T00:54:09.859Z,80.71
2022-10-12T00:56:38.912Z,80.25
2022-10-12T00:59:08.605Z,80.53
2022-10-12T01:01:36.375Z,80.19
2022-10-12T01:04:03.765Z,80.03
2022-10-12T01:06:31.255Z,80.70
2022-10-12T01:08:58.373Z,80.60
2022-10-12T01:11:25.497Z,80.70
2022-10-12T01:13:52.447Z,80.83
2022-10-12T01:16:38.096Z,81.46
2022-10-12T01:19:04.948Z,81.38
2022-10-12T01:21:33.979Z,80.88
2022-10-12T01:24:07.393Z,80.52
2022-10-12T01:26:53.340Z,81.08
2022-10-12T01:29:38.933Z,80.79
2022-10-12T01:32:13.656Z,80.34
2022-10-12T01:34:52.323Z,80.15
2022-10-12T01:37:28.764Z,81.03
2022-10-12T01:39:57.397Z,81.21
2022-10-12T01:42:27.416Z,81.08
2022-10-12T01:45:03.693Z,81.18
2022-10-12T01:47:31.109Z,81.43
2022-10-12T01:49:58.424Z,81.60
2022-10-12T01:52:28.121Z,81.98
2022-10-12T01:54:57.842Z,82.44
2022-10-12T01:57:44.954Z,81.28
2022-10-12T02:00:13.253Z,81.91
2022-10-12T02:02:45.307Z,81.80
2022-10-12T02:05:37.050Z,81.83
2022-10-12T02:08:18.333Z,81.13
2022-10-12T02:11:11.281Z,81.15
2022-10-12T02:13:51.071Z,81.48
2022-10-12T02:16:19.890Z,81.58
2022-10-12T02:18:49.573Z,81.47
2022-10-12T02:21:19.099Z,81.13
2022-10-12T02:23:46.721Z,81.26
2022-10-12T02:26:15.143Z,82.25
2022-10-12T02:28:43.943Z,81.36
2022-10-12T02:31:18.393Z,81.93
2022-10-12T02:33:54.525Z,82.44
2022-10-12T02:36:28.004Z,81.88
2022-10-12T02:39:00.217Z,83.17
2022-10-12T02:41:35.691Z,83.87
2022-10-12T02:44:05.324Z,82.79
2022-10-12T02:46:33.633Z,81.38
2022-10-12T02:49:01.012Z,81.17
2022-10-12T02:51:29.421Z,81.38
2022-10-12T02:53:57.109Z,81.24
2022-10-12T02:56:24.270Z,81.74
2022-10-12T02:58:51.209Z,81.34
2022-10-12T03:01:18.405Z,82.42
2022-10-12T03:03:45.629Z,82.17
2022-10-12T03:06:12.578Z,82.04
2022-10-12T03:08:39.908Z,81.24
2022-10-12T03:11:08.345Z,81.15
2022-10-12T03:13:35.282Z,82.33
2022-10-12T03:16:03.601Z,82.06
2022-10-12T03:18:30.680Z,81.93
2022-10-12T03:20:57.587Z,81.75
2022-10-12T03:23:24.620Z,82.97
2022-10-12T03:25:51.657Z,82.99
2022-10-12T03:28:18.619Z,82.27
2022-10-12T03:30:46.183Z,81.77
2022-10-12T03:33:13.193Z,81.15
2022-10-12T03:35:40.056Z,81.57
2022-10-12T03:38:07.105Z,82.15
2022-10-12T03:40:35.952Z,82.50
2022-10-12T03:43:03.169Z,81.95
2022-10-12T03:45:30.138Z,82.00
2022-10-12T03:48:01.039Z,82.09
2022-10-12T03:50:30.752Z,82.34
2022-10-12T03:52:57.867Z,82.10
2022-10-12T03:55:25.081Z,82.75
2022-10-12T03:57:52.297Z,82.82
2022-10-12T04:00:19.332Z,82.89
2022-10-12T04:02:46.457Z,82.80
2022-10-12T04:05:13.350Z,82.53
2022-10-12T04:07:40.481Z,82.46
2022-10-12T04:10:08.093Z,82.12
2022-10-12T04:12:35.253Z,82.89
2022-10-12T04:15:02.154Z,83.31
2022-10-12T04:17:29.422Z,82.88
2022-10-12T04:19:56.400Z,83.09
2022-10-12T04:22:24.902Z,82.68
2022-10-12T04:24:52.085Z,82.63
2022-10-12T04:27:18.896Z,82.24
2022-10-12T04:29:45.709Z,81.72
2022-10-12T04:32:12.957Z,82.20
2022-10-12T04:34:39.991Z,83.22
2022-10-12T04:37:07.084Z,83.01
2022-10-12T04:39:34.044Z,82.97
2022-10-12T04:42:01.089Z,82.11
2022-10-12T04:44:32.230Z,82.08
2022-10-12T04:47:00.406Z,82.96
2022-10-12T04:49:27.261Z,83.07
2022-10-12T04:51:54.268Z,82.63
2022-10-12T04:54:21.064Z,82.69
2022-10-12T04:56:48.455Z,82.81
2022-10-12T04:59:15.475Z,82.05
2022-10-12T05:01:43.149Z,81.32
2022-10-12T05:04:10.186Z,82.13
2022-10-12T05:06:37.125Z,82.36
2022-10-12T05:09:04.549Z,82.29
2022-10-12T05:11:31.616Z,81.52
2022-10-12T05:13:58.995Z,82.26
2022-10-12T05:16:26.165Z,82.35
2022-10-12T05:18:53.287Z,82.45
2022-10-12T05:21:20.194Z,82.61
2022-10-12T05:23:50.685Z,82.08
2022-10-12T05:26:17.781Z,81.86
2022-10-12T05:28:45.192Z,82.54
2022-10-12T05:31:12.120Z,82.06
2022-10-12T05:33:39.469Z,81.81
2022-10-12T05:36:06.546Z,81.71
2022-10-12T05:38:33.732Z,81.60
2022-10-12T05:41:01.025Z,80.28
2022-10-12T05:43:28.793Z,79.84
2022-10-12T05:45:55.721Z,80.60
2022-10-12T05:48:22.804Z,81.53
2022-10-12T05:50:52.321Z,81.21
2022-10-12T05:53:19.437Z,81.14
2022-10-12T05:55:56.212Z,81.04
2022-10-12T05:58:23.959Z,81.44
2022-10-12T06:00:51.073Z,81.83
2022-10-12T06:03:19.014Z,81.79
2022-10-12T06:05:46.348Z,82.26
2022-10-12T06:08:13.583Z,81.57
2022-10-12T06:13:18.118Z,82.04
2022-10-12T06:15:46.216Z,82.30
2022-10-12T06:18:13.788Z,82.07
2022-10-12T06:20:40.914Z,81.18
2022-10-12T06:23:08.233Z,82.00
2022-10-12T06:25:35.471Z,82.11
2022-10-12T06:28:02.357Z,82.41
2022-10-12T06:30:29.496Z,82.15
2022-10-12T06:32:56.271Z,82.14
2022-10-12T06:35:23.432Z,82.90
2022-10-12T06:37:50.778Z,82.08
2022-10-12T06:40:19.071Z,81.59
2022-10-12T06:42:46.000Z,82.06
2022-10-12T06:45:13.277Z,82.22
2022-10-12T06:47:40.286Z,82.77
2022-10-12T06:50:08.203Z,83.16
2022-10-12T06:52:35.570Z,83.24
2022-10-12T06:55:03.253Z,83.11
2022-10-12T06:57:30.780Z,83.19
2022-10-12T06:59:58.345Z,83.36
2022-10-12T07:02:25.426Z,83.36
2022-10-12T07:04:53.237Z,83.34
2022-10-12T07:07:20.243Z,83.27
2022-10-12T07:09:47.896Z,82.88
2022-10-12T07:12:14.917Z,83.52
2022-10-12T07:14:41.940Z,83.41
2022-10-12T07:17:08.997Z,82.78
2022-10-12T07:19:36.133Z,82.23
2022-10-12T07:22:02.985Z,82.22
2022-10-12T07:24:36.478Z,82.60
2022-10-12T07:29:36.320Z,82.53
2022-10-12T07:32:03.577Z,82.32
2022-10-12T07:34:30.676Z,81.13
2022-10-12T07:36:59.756Z,80.46
2022-10-12T07:39:27.004Z,80.95
2022-10-12T07:41:54.439Z,82.82
2022-10-12T07:44:22.701Z,82.95
2022-10-12T07:46:50.222Z,82.20
2022-10-12T07:49:17.125Z,81.82
2022-10-12T07:51:44.693Z,80.38
2022-10-12T07:54:12.804Z,79.47
2022-10-12T07:56:41.608Z,79.20
2022-10-12T07:59:08.920Z,79.37
2022-10-12T08:01:36.199Z,79.37
2022-10-12T08:04:03.132Z,80.09
2022-10-12T08:06:32.026Z,79.47
2022-10-12T08:08:59.820Z,78.83
2022-10-12T08:11:27.321Z,77.38
2022-10-12T08:13:54.464Z,74.41
2022-10-12T08:16:21.600Z,70.03
2022-10-12T08:18:48.538Z,67.31
2022-10-12T08:21:16.852Z,63.88
2022-10-12T08:23:45.276Z,62.04
2022-10-12T08:26:13.145Z,61.01
2022-10-12T08:28:40.228Z,58.97
2022-10-12T08:31:11.497Z,58.18
2022-10-12T08:33:38.646Z,56.66
2022-10-12T08:36:06.753Z,55.24
2022-10-12T08:38:34.341Z,53.40
2022-10-12T08:41:22.329Z,53.13
2022-10-12T08:44:04.548Z,52.02
2022-10-12T08:46:32.313Z,50.39
2022-10-12T08:49:05.549Z,49.60
2022-10-12T08:51:40.417Z,47.54
2022-10-12T08:54:08.120Z,47.21
2022-10-12T08:56:36.000Z,45.79
2022-10-12T08:59:03.795Z,44.58
2022-10-12T09:01:37.479Z,44.16
2022-10-12T09:04:11.193Z,44.03
2022-10-12T09:06:46.850Z,42.47
2022-10-12T09:09:30.853Z,42.19
2022-10-12T09:12:01.173Z,42.38
2022-10-12T09:14:30.861Z,41.75
2022-10-12T09:16:58.123Z,40.93
2022-10-12T09:19:29.589Z,40.47
2022-10-12T09:21:57.237Z,40.52
2022-10-12T09:24:28.863Z,40.28
2022-10-12T09:26:59.029Z,39.59
2022-10-12T09:29:25.965Z,39.75
2022-10-12T09:32:05.093Z,38.97
2022-10-12T09:34:32.440Z,38.34
2022-10-12T09:37:02.062Z,37.66
2022-10-12T09:39:34.014Z,38.35
2022-10-12T09:42:01.443Z,37.66
2022-10-12T09:44:34.590Z,36.93
2022-10-12T09:47:06.334Z,36.51
2022-10-12T09:49:43.735Z,35.23
2022-10-12T09:52:11.352Z,34.46
2022-10-12T09:54:46.592Z,35.30
2022-10-12T09:57:24.031Z,34.04
2022-10-12T09:59:51.696Z,34.41
2022-10-12T10:02:22.742Z,34.29
2022-10-12T10:04:50.764Z,34.59
2022-10-12T10:07:31.317Z,36.42
2022-10-12T10:10:17.571Z,35.84
2022-10-12T10:12:48.914Z,35.38
2022-10-12T10:15:28.054Z,35.05
2022-10-12T10:17:57.443Z,35.98
2022-10-12T10:20:27.493Z,37.08
2022-10-12T10:22:54.493Z,37.75
2022-10-12T10:25:22.569Z,39.23
2022-10-12T10:27:51.134Z,40.76
2022-10-12T10:30:29.807Z,42.25
2022-10-12T10:33:08.210Z,42.59
2022-10-12T10:35:35.104Z,42.96
2022-10-12T10:38:04.014Z,43.48
2022-10-12T10:40:32.353Z,43.41
2022-10-12T10:43:03.929Z,44.23
2022-10-12T10:45:33.606Z,43.92
2022-10-12T10:48:07.380Z,45.65
2022-10-12T10:50:37.045Z,45.94
2022-10-12T10:53:13.392Z,45.34
2022-10-12T10:55:56.261Z,45.15
2022-10-12T10:58:23.609Z,45.54
2022-10-12T11:00:51.695Z,46.76
2022-10-12T11:03:22.735Z,46.36
2022-10-12T11:05:53.059Z,46.72
2022-10-12T11:08:20.709Z,46.15
2022-10-12T11:10:50.451Z,48.19
2022-10-12T11:13:31.403Z,47.99
2022-10-12T11:16:04.047Z,47.93
2022-10-12T11:18:34.842Z,48.02
2022-10-12T11:21:04.443Z,46.89
2022-10-12T11:23:37.506Z,46.91
2022-10-12T11:26:13.918Z,47.34
2022-10-12T11:28:41.506Z,47.76
2022-10-12T11:31:15.592Z,47.56
2022-10-12T11:33:43.848Z,47.44
2022-10-12T11:36:15.834Z,49.33
2022-10-12T11:38:51.377Z,48.13
2022-10-12T11:41:35.286Z,49.95
2022-10-12T11:44:38.533Z,49.27
2022-10-12T11:47:24.242Z,49.49
2022-10-12T11:49:55.706Z,48.80
2022-10-12T11:52:28.998Z,48.89
2022-10-12T11:55:00.953Z,49.08
2022-10-12T11:57:31.526Z,49.26
2022-10-12T12:00:16.391Z,50.21
2022-10-12T12:02:46.000Z,50.98
2022-10-12T12:05:16.547Z,49.46
2022-10-12T12:07:50.376Z,48.45
2022-10-12T12:10:26.510Z,47.41
2022-10-12T12:13:13.247Z,47.90
2022-10-12T12:15:52.515Z,48.07
2022-10-12T12:18:21.207Z,47.04
2022-10-12T12:20:48.084Z,46.69
2022-10-12T12:23:24.953Z,46.08
2022-10-12T12:26:16.601Z,46.44
2022-10-12T12:29:04.094Z,46.37
2022-10-12T12:31:31.277Z,47.16
2022-10-12T12:34:06.950Z,46.39
2022-10-12T12:36:38.702Z,46.56
2022-10-12T12:39:07.881Z,46.43
2022-10-12T12:41:57.714Z,46.11
2022-10-12T12:44:34.888Z,44.98
2022-10-12T12:47:20.554Z,45.84
2022-10-12T12:49:55.473Z,46.30
2022-10-12T12:52:30.030Z,45.57
2022-10-12T12:55:11.997Z,46.14
2022-10-12T12:57:49.570Z,46.19
2022-10-12T13:00:19.871Z,46.90
2022-10-12T13:02:50.790Z,47.49
2022-10-12T13:05:46.638Z,45.79
2022-10-12T13:08:13.716Z,44.73
2022-10-12T13:10:43.599Z,45.80
2022-10-12T13:13:13.585Z,46.17
2022-10-12T13:15:43.462Z,45.13
2022-10-12T13:18:45.706Z,45.59
2022-10-12T13:21:13.243Z,46.26
2022-10-12T13:23:40.554Z,45.97
2022-10-12T13:26:09.337Z,47.01
2022-10-12T13:28:39.997Z,47.02
2022-10-12T13:31:16.481Z,47.05
2022-10-12T13:33:50.521Z,46.68
2022-10-12T13:36:20.728Z,47.19
2022-10-12T13:38:47.703Z,46.53
2022-10-12T13:41:16.625Z,45.31
2022-10-12T13:43:52.801Z,45.58
2022-10-12T13:46:36.705Z,45.91
2022-10-12T13:49:11.905Z,45.83
2022-10-12T13:51:38.801Z,44.62
2022-10-12T13:54:23.253Z,45.59
2022-10-12T13:56:56.644Z,45.76
2022-10-12T13:59:25.094Z,45.45
2022-10-12T14:01:54.062Z,45.90
2022-10-12T14:04:21.217Z,46.65
2022-10-12T14:06:53.014Z,46.66
2022-10-12T14:09:21.621Z,46.59
2022-10-12T14:11:50.339Z,46.78
2022-10-12T14:14:20.331Z,45.38
2022-10-12T14:16:47.492Z,45.74
2022-10-12T14:19:18.697Z,46.35
2022-10-12T14:21:47.896Z,45.49
2022-10-12T14:24:16.701Z,46.04
2022-10-12T14:26:45.094Z,45.86
2022-10-12T14:29:27.116Z,46.65
2022-10-12T14:31:55.465Z,46.88
2022-10-12T14:34:23.226Z,47.51
2022-10-12T14:37:08.745Z,47.80
2022-10-12T14:39:36.865Z,47.48
2022-10-12T14:42:05.025Z,47.65
2022-10-12T14:44:42.057Z,47.38
2022-10-12T14:47:17.364Z,47.57
2022-10-12T14:49:45.437Z,48.51
2022-10-12T14:52:18.398Z,49.01
2022-10-12T14:54:45.395Z,48.55
2022-10-12T14:57:14.505Z,48.60
2022-10-12T14:59:42.237Z,48.39
2022-10-12T15:02:19.505Z,48.96
2022-10-12T15:04:46.809Z,49.89
2022-10-12T15:07:23.796Z,48.88
2022-10-12T15:09:50.952Z,49.04
2022-10-12T15:12:20.157Z,49.19
2022-10-12T15:14:47.368Z,49.99
2022-10-12T15:17:14.938Z,50.07
2022-10-12T15:19:42.889Z,50.56
2022-10-12T15:22:17.511Z,50.49
2022-10-12T15:24:44.730Z,50.46
2022-10-12T15:27:11.787Z,51.07
2022-10-12T15:29:39.346Z,50.81
2022-10-12T15:32:06.804Z,51.15
2022-10-12T15:34:33.834Z,51.94
2022-10-12T15:37:03.229Z,52.91
2022-10-12T15:39:32.521Z,53.43
2022-10-12T15:41:59.411Z,54.27
2022-10-12T15:44:26.714Z,53.38
2022-10-12T15:46:54.138Z,53.67
2022-10-12T15:49:24.506Z,54.65
2022-10-12T15:51:53.057Z,54.43
2022-10-12T15:54:20.172Z,54.72
2022-10-12T15:56:47.168Z,56.20
2022-10-12T15:59:14.393Z,56.36
2022-10-12T16:01:43.399Z,56.73
2022-10-12T16:04:13.402Z,57.46
2022-10-12T16:06:40.526Z,57.94
2022-10-12T16:09:08.224Z,58.19
2022-10-12T16:11:35.256Z,59.70
2022-10-12T16:14:03.253Z,60.20
2022-10-12T16:16:31.986Z,60.56
2022-10-12T16:19:00.427Z,61.74
2022-10-12T16:21:29.195Z,61.77
2022-10-12T16:23:56.560Z,62.31
2022-10-12T16:26:23.719Z,62.95
2022-10-12T16:28:50.647Z,64.09
2022-10-12T16:31:18.223Z,64.14
2022-10-12T16:33:45.676Z,64.60
2022-10-12T16:36:15.428Z,65.07
2022-10-12T16:38:43.278Z,65.53
2022-10-12T16:41:14.279Z,66.76
2022-10-12T16:43:42.418Z,67.99
2022-10-12T16:46:10.110Z,68.02
2022-10-12T16:48:38.519Z,68.43
2022-10-12T16:51:11.936Z,68.69
2022-10-12T16:53:42.540Z,69.01
2022-10-12T16:56:11.201Z,69.37
2022-10-12T16:58:38.837Z,70.03
2022-10-12T17:01:13.629Z,69.37
2022-10-12T17:03:42.377Z,69.67
2022-10-12T17:06:13.093Z,70.53
2022-10-12T17:08:40.892Z,70.95
2022-10-12T17:11:10.427Z,71.63
2022-10-12T17:13:39.998Z,71.80
2022-10-12T17:16:28.505Z,71.60
2022-10-12T17:18:59.598Z,71.83
2022-10-12T17:21:28.402Z,71.51
2022-10-12T17:23:57.556Z,72.11
2022-10-12T17:26:26.333Z,71.84
2022-10-12T17:28:54.083Z,72.02
2022-10-12T17:31:22.256Z,72.69
2022-10-12T17:33:49.801Z,72.62
2022-10-12T17:36:18.554Z,72.40
2022-10-12T17:38:47.741Z,72.50
2022-10-12T17:41:16.813Z,72.79
2022-10-12T17:43:45.355Z,73.21
2022-10-12T17:46:17.010Z,72.99
2022-10-12T17:48:47.223Z,73.38
2022-10-12T17:51:16.261Z,73.06
2022-10-12T17:53:43.273Z,74.01
2022-10-12T17:56:12.850Z,75.29
2022-10-12T17:58:39.936Z,75.40
2022-10-12T18:01:08.232Z,75.36
2022-10-12T18:03:35.229Z,76.29
2022-10-12T18:06:02.854Z,76.33
2022-10-12T18:08:29.976Z,76.61
2022-10-12T18:11:01.815Z,75.47
2022-10-12T18:13:29.271Z,75.28
2022-10-12T18:15:56.821Z,76.31
2022-10-12T18:18:24.277Z,76.63
2022-10-12T18:20:51.541Z,76.49
2022-10-12T18:23:18.918Z,77.54
2022-10-12T18:25:48.485Z,77.11
2022-10-12T18:28:15.665Z,77.62
2022-10-12T18:30:47.282Z,77.99
2022-10-12T18:33:14.545Z,78.02
2022-10-12T18:35:41.695Z,78.25
2022-10-12T18:38:08.618Z,78.46
2022-10-12T18:40:41.170Z,78.56
2022-10-12T18:43:09.285Z,78.71
2022-10-12T18:45:41.214Z,78.91
2022-10-12T18:48:08.143Z,78.71
2022-10-12T18:50:36.109Z,78.00
2022-10-12T18:53:03.344Z,78.24
2022-10-12T18:55:30.561Z,78.07
2022-10-12T18:57:57.359Z,78.50
2022-10-12T19:00:24.634Z,79.40
2022-10-12T19:02:51.557Z,78.96
2022-10-12T19:05:18.393Z,78.98
2022-10-12T19:07:45.605Z,77.68
2022-10-12T19:10:12.513Z,78.67
2022-10-12T19:12:45.516Z,78.53
2022-10-12T19:15:13.099Z,78.96
2022-10-12T19:17:39.940Z,78.11
2022-10-12T19:20:07.487Z,78.39
2022-10-12T19:22:34.404Z,77.51
2022-10-12T19:25:01.543Z,77.47
2022-10-12T19:27:28.454Z,76.88
2022-10-12T19:29:55.707Z,78.66
2022-10-12T19:32:22.606Z,77.79
2022-10-12T19:34:52.469Z,79.29
2022-10-12T19:37:19.413Z,79.14
2022-10-12T19:39:47.321Z,78.73
2022-10-12T19:42:14.184Z,78.91
2022-10-12T19:44:41.431Z,79.26
2022-10-12T19:47:08.305Z,78.57
2022-10-12T19:49:37.356Z,79.04
2022-10-12T19:52:05.667Z,79.09
2022-10-12T19:54:36.073Z,79.32
2022-10-12T19:57:03.349Z,79.25
2022-10-12T19:59:30.620Z,79.58
2022-10-12T20:01:57.623Z,79.08
2022-10-12T20:04:26.541Z,79.16
2022-10-12T20:06:53.780Z,78.94
2022-10-12T20:09:20.626Z,78.29
2022-10-12T20:11:47.872Z,79.24
2022-10-12T20:14:14.857Z,79.18
2022-10-12T20:16:41.786Z,78.46
2022-10-12T20:19:08.981Z,78.79
2022-10-12T20:21:38.353Z,79.44
2022-10-12T20:24:08.896Z,78.49
2022-10-12T20:26:37.526Z,78.19
2022-10-12T20:29:04.441Z,77.83
2022-10-12T20:31:31.362Z,78.08
2022-10-12T20:33:58.578Z,78.66
2022-10-12T20:36:26.791Z,79.73
2022-10-12T20:38:53.793Z,79.44
2022-10-12T20:41:21.979Z,78.47
2022-10-12T20:43:49.100Z,78.92
2022-10-12T20:46:17.393Z,78.62
2022-10-12T20:48:44.846Z,79.24
2022-10-12T20:51:31.458Z,79.79
2022-10-12T20:54:00.716Z,79.42
2022-10-12T20:56:30.046Z,78.76
2022-10-12T20:58:56.852Z,78.76
2022-10-12T21:01:24.574Z,78.41
2022-10-12T21:03:52.325Z,78.60
2022-10-12T21:06:20.621Z,79.48
2022-10-12T21:08:51.890Z,78.59
2022-10-12T21:11:19.050Z,78.48
2022-10-12T21:13:46.160Z,78.66
2022-10-12T21:16:14.156Z,79.02
2022-10-12T21:18:42.134Z,79.71
2022-10-12T21:21:16.538Z,80.35
2022-10-12T21:23:44.895Z,80.29
2022-10-12T21:26:16.754Z,81.19
2022-10-12T21:28:43.861Z,80.14
2022-10-12T21:31:11.365Z,80.27
2022-10-12T21:33:38.484Z,79.49
2022-10-12T21:36:10.023Z,79.88
2022-10-12T21:38:37.580Z,79.76
2022-10-12T21:41:05.156Z,80.02
2022-10-12T21:43:32.431Z,80.97
2022-10-12T21:46:07.131Z,80.23
2022-10-12T21:48:34.834Z,80.63
2022-10-12T21:51:02.597Z,80.36
2022-10-12T21:53:29.810Z,80.65
2022-10-12T21:55:56.696Z,81.63
2022-10-12T21:58:23.776Z,81.74
2022-10-12T22:00:50.696Z,82.19
2022-10-12T22:03:17.629Z,82.29
2022-10-12T22:05:45.177Z,82.66
2022-10-12T22:08:12.161Z,82.79
2022-10-12T22:10:39.474Z,81.99
2022-10-12T22:13:07.214Z,82.01
2022-10-12T22:15:35.124Z,82.14
2022-10-12T22:18:02.365Z,82.47
2022-10-12T22:20:29.234Z,81.75
2022-10-12T22:22:56.129Z,80.86
2022-10-12T22:25:23.329Z,80.48
2022-10-12T22:27:50.160Z,79.56
2022-10-12T22:30:17.314Z,79.09
2022-10-12T22:32:44.463Z,80.28
2022-10-12T22:35:11.353Z,79.90
2022-10-12T22:37:38.316Z,80.14
2022-10-12T22:40:05.896Z,81.08
2022-10-12T22:42:32.930Z,80.62
2022-10-12T22:44:59.977Z,80.41
2022-10-12T22:47:27.020Z,80.02
2022-10-12T22:49:53.877Z,80.45
2022-10-12T22:52:20.993Z,79.93
2022-10-12T22:54:50.136Z,79.06
2022-10-12T22:57:17.034Z,80.19
2022-10-12T22:59:43.975Z,80.73
2022-10-12T23:02:11.021Z,81.67
2022-10-12T23:04:38.010Z,81.17
2022-10-12T23:07:04.872Z,81.08
2022-10-12T23:09:31.929Z,80.91
2022-10-12T23:11:59.265Z,81.12
2022-10-12T23:14:26.102Z,81.39
2022-10-12T23:16:53.172Z,82.10
2022-10-12T23:19:19.961Z,81.81
2022-10-12T23:21:48.279Z,81.94
2022-10-12T23:24:15.379Z,81.66
2022-10-12T23:26:42.203Z,80.93
2022-10-12T23:29:09.106Z,81.58
2022-10-12T23:31:36.491Z,81.81
2022-10-12T23:34:04.883Z,82.13
2022-10-12T23:36:32.055Z,82.53
2022-10-12T23:39:00.967Z,82.03
2022-10-12T23:41:27.822Z,81.64
2022-10-12T23:43:54.779Z,81.54
2022-10-12T23:46:21.893Z,81.60
2022-10-12T23:48:48.746Z,81.29
2022-10-12T23:51:15.667Z,81.67
2022-10-12T23:53:42.984Z,82.24
2022-10-12T23:56:10.219Z,82.28
2022-10-12T23:58:37.246Z,82.11
